Time;durP1;ratioP1;P1;durP2;ratioP2;P2;SDS_P1;SDS_P2;PMS_P1;PMS_P2;Temp;Humidity;BMP_temperature;BMP_pressure;BME280_temperature;BME280_humidity;BME280_pressure;Samples;Min_cycle;Max_cycle;Signal;HPM_P1;HPM_P2
2023/05/02 00:01:24;;;;;;;;;;;;;;;;;;4955596;29;19927;-91
2023/05/02 00:11:50;;;;;;;;;;;;;;;;;;5012820;23;20801;-92
2023/05/02 00:14:17;;;;;;;;;;;;;;;;;;4997831;28;19922;-92
2023/05/02 00:16:45;;;;;;;;;;;;;;;;;;4982786;28;19934;-92
2023/05/02 00:19:11;;;;;;;;;;;;;;;;;;4967272;28;19945;-91
2023/05/02 00:21:37;;;;;;;;;;;;;;;;;;4972831;28;19921;-91
2023/05/02 00:24:02;;;;;;;;;;;;;;;;;;4972404;28;20276;-91
2023/05/02 00:26:28;;;;;;;;;;;;;;;;;;4972864;28;19922;-90
2023/05/02 00:28:54;;;;;;;;;;;;;;;;;;4971525;28;19926;-92
2023/05/02 00:31:20;;;;;;;;;;;;;;;;;;4972560;28;19922;-91
2023/05/02 00:33:46;;;;;;;;;;;;;;;;;;4971775;28;19930;-91
2023/05/02 00:36:12;;;;;;;;;;;;;;;;;;4973708;28;19922;-91
2023/05/02 00:38:38;;;;;;;;;;;;;;;;;;4972917;28;19930;-91
2023/05/02 00:41:05;;;;;;;;;;;;;;;;;;4981145;28;19988;-92
2023/05/02 00:43:31;;;;;;;;;;;;;;;;;;4977311;28;19922;-90
2023/05/02 00:51:11;;;;;;;;;;;;;;;;;;5397542;23;19933;-91
2023/05/02 00:53:36;;;;;;;;;;;;;;;;;;4966460;28;19930;-90
2023/05/02 00:56:02;;;;;;;;;;;;;;;;;;4968567;28;19922;-90
2023/05/02 00:58:29;;;;;;;;;;;;;;;;;;4952308;29;19922;-89
2023/05/02 01:00:55;;;;;;;;;;;;;;;;;;4974894;28;19957;-92
2023/05/02 01:03:21;;;;;;;;;;;;;;;;;;4958378;28;19922;-92
2023/05/02 01:05:47;;;;;;;;;;;;;;;;;;4954003;29;19929;-91
2023/05/02 01:08:13;;;;;;;;;;;;;;;;;;4954019;29;19922;-92
2023/05/02 01:21:01;;;;;;;;;;;;;;;;;;4969304;28;19927;-91
2023/05/02 01:23:28;;;;;;;;;;;;;;;;;;4970246;29;19929;-94
2023/05/02 01:25:54;;;;;;;;;;;;;;;;;;4953617;29;20393;-92
2023/05/02 01:28:19;;;;;;;;;;;;;;;;;;4953592;29;19923;-91
2023/05/02 01:30:45;;;;;;;;;;;;;;;;;;4953852;28;19927;-92
2023/05/02 01:33:11;;;;;;;;;;;;;;;;;;4954897;28;19923;-92
2023/05/02 01:35:37;;;;;;;;;;;;;;;;;;4970622;29;20038;-91
2023/05/02 01:38:03;;;;;;;;;;;;;;;;;;4955146;28;19910;-93
2023/05/02 01:56:02;;;;;;;;;;;;;;;;;;4981247;28;19934;-91
2023/05/02 01:58:28;;;;;;;;;;;;;;;;;;4956351;29;19922;-91
2023/05/02 02:00:53;;;;;;;;;;;;;;;;;;4957046;29;20396;-92
2023/05/02 02:03:19;;;;;;;;;;;;;;;;;;4957102;29;20111;-91
2023/05/02 02:05:45;;;;;;;;;;;;;;;;;;4957023;29;19946;-91
2023/05/02 02:21:11;;;;;;;;;;;;;;;;;;5422144;23;19926;-92
2023/05/02 02:23:37;;;;;;;;;;;;;;;;;;4954742;29;19929;-92
2023/05/02 02:26:03;;;;;;;;;;;;;;;;;;4955468;29;19962;-93
2023/05/02 02:28:29;;;;;;;;;;;;;;;;;;4955950;29;19950;-91
2023/05/02 02:30:55;;;;;;;;;;;;;;;;;;4955992;29;19927;-93
2023/05/02 02:33:21;;;;;;;;;;;;;;;;;;4955977;29;19966;-92
2023/05/02 02:35:47;;;;;;;;;;;;;;;;;;4956564;29;19946;-94
2023/05/02 02:38:13;;;;;;;;;;;;;;;;;;4955607;29;19922;-92
2023/05/02 02:43:14;;;;;;;;;;;;;;;;;;5036853;23;19926;-92
2023/05/02 02:45:45;;;;;;;;;;;;;;;;;;4942124;29;21812;-91
2023/05/02 02:51:02;;;;;;;;;;;;;;;;;;5532708;23;19927;-91
2023/05/02 03:06:27;;;;;;;;;;;;;;;;;;5735962;23;19993;-92
2023/05/02 03:08:53;;;;;;;;;;;;;;;;;;4955419;29;19942;-91
2023/05/02 03:11:19;;;;;;;;;;;;;;;;;;4955719;29;19929;-91
2023/05/02 03:13:46;;;;;;;;;;;;;;;;;;4955021;29;19929;-92
2023/05/02 03:42:10;;;;;;;;;;;;;;;;;;5854690;23;19923;-86
2023/05/02 03:44:36;;;;;;;;;;;;;;;;;;4956798;29;20328;-84
2023/05/02 03:47:02;;;;;;;;;;;;;;;;;;4946359;29;19981;-86
2023/05/02 03:49:31;;;;;;;;;;;;;;;;;;4959251;29;19926;-87
2023/05/02 03:52:00;;;;;;;;;;;;;;;;;;4962171;29;19921;-88
2023/05/02 03:54:35;;;;;;;;;;;;;;;;;;4967680;28;20002;-88
2023/05/02 03:57:03;;;;;;;;;;;;;;;;;;4964334;28;19957;-87
2023/05/02 03:59:29;;;;;;;;;;;;;;;;;;4948294;29;19946;-87
2023/05/02 04:01:55;;;;;;;;;;;;;;;;;;4946865;28;20376;-86
2023/05/02 04:04:21;;;;;;;;;;;;;;;;;;4939203;29;19923;-87
2023/05/02 04:06:48;;;;;;;;;;;;;;;;;;4936777;29;19923;-87
2023/05/02 04:09:14;;;;;;;;;;;;;;;;;;4952716;28;19933;-85
2023/05/02 04:11:40;;;;;;;;;;;;;;;;;;4948692;29;19993;-87
2023/05/02 04:14:06;;;;;;;;;;;;;;;;;;4941173;29;19923;-86
2023/05/02 04:16:32;;;;;;;;;;;;;;;;;;4956777;29;19922;-87
2023/05/02 04:18:58;;;;;;;;;;;;;;;;;;4947424;29;19927;-86
2023/05/02 04:31:51;;;;;;;;;;;;;;;;;;5123294;23;19927;-88
2023/05/02 04:34:16;;;;;;;;;;;;;;;;;;4964344;28;19922;-91
2023/05/02 04:36:42;;;;;;;;;;;;;;;;;;4959601;29;20082;-92
2023/05/02 04:39:08;;;;;;;;;;;;;;;;;;4959106;28;19985;-89
2023/05/02 04:41:34;;;;;;;;;;;;;;;;;;4965725;28;20020;-91
2023/05/02 04:44:00;;;;;;;;;;;;;;;;;;4967313;28;19930;-92
2023/05/02 04:46:26;;;;;;;;;;;;;;;;;;4962857;28;19922;-92
2023/05/02 04:48:52;;;;;;;;;;;;;;;;;;4968620;28;19926;-95
2023/05/02 04:51:18;;;;;;;;;;;;;;;;;;4962813;28;19910;-93
2023/05/02 04:53:44;;;;;;;;;;;;;;;;;;4970997;28;19933;-93
2023/05/02 04:56:10;;;;;;;;;;;;;;;;;;4966544;28;19929;-92
2023/05/02 04:58:37;;;;;;;;;;;;;;;;;;4962731;29;19923;-93
2023/05/02 05:01:03;;;;;;;;;;;;;;;;;;4962181;28;19930;-93
2023/05/02 05:03:29;;;;;;;;;;;;;;;;;;4964011;28;19933;-92
2023/05/02 05:05:55;;;;;;;;;;;;;;;;;;4968348;28;19922;-94
2023/05/02 05:08:21;;;;;;;;;;;;;;;;;;4968245;28;20044;-93
2023/05/02 05:21:10;;;;;;;;;;;;;;;;;;5221685;23;20022;-87
2023/05/02 05:23:36;;;;;;;;;;;;;;;;;;4947345;29;19962;-87
2023/05/02 05:26:03;;;;;;;;;;;;;;;;;;4948176;29;20032;-87
2023/05/02 05:28:29;;;;;;;;;;;;;;;;;;4945181;29;19923;-86
2023/05/02 05:30:56;;;;;;;;;;;;;;;;;;4920090;29;19935;-86
2023/05/02 05:33:22;;;;;;;;;;;;;;;;;;4918062;29;19927;-87
2023/05/02 05:35:48;;;;;;;;;;;;;;;;;;4938733;29;19930;-86
2023/05/02 05:38:14;;;;;;;;;;;;;;;;;;4919395;29;19923;-87
2023/05/02 05:40:40;;;;;;;;;;;;;;;;;;4917361;29;19923;-87
2023/05/02 05:43:05;;;;;;;;;;;;;;;;;;4924530;29;20317;-86
2023/05/02 05:45:32;;;;;;;;;;;;;;;;;;4921465;29;20206;-87
2023/05/02 05:48:00;;;;;;;;;;;;;;;;;;4925698;29;19929;-87
2023/05/02 05:50:26;;;;;;;;;;;;;;;;;;4943463;29;19926;-88
2023/05/02 05:52:55;;;;;;;;;;;;;;;;;;4961996;29;19947;-87
2023/05/02 05:55:40;;;;;;;;;;;;;;;;;;4966294;29;19934;-85
2023/05/02 05:58:06;;;;;;;;;;;;;;;;;;4949958;29;20360;-86
2023/05/02 06:00:35;;;;;;;;;;;;;;;;;;4947814;29;19954;-86
2023/05/02 06:03:02;;;;;;;;;;;;;;;;;;4934443;29;19943;-85
2023/05/02 06:05:28;;;;;;;;;;;;;;;;;;4950323;29;19922;-87
2023/05/02 06:07:54;;;;;;;;;;;;;;;;;;4949916;29;20510;-87
2023/05/02 06:10:21;;;;;;;;;;;;;;;;;;4950096;29;19927;-86
2023/05/02 06:12:47;;;;;;;;;;;;;;;;;;4949808;29;19922;-87
2023/05/02 06:15:13;;;;;;;;;;;;;;;;;;4950553;29;19930;-87
2023/05/02 06:17:39;;;;;;;;;;;;;;;;;;4948024;29;19929;-88
2023/05/02 06:20:06;;;;;;;;;;;;;;;;;;4934567;29;19922;-89
2023/05/02 06:22:35;;;;;;;;;;;;;;;;;;4960118;29;19933;-88
2023/05/02 06:25:01;;;;;;;;;;;;;;;;;;4950232;29;19992;-88
2023/05/02 06:27:27;;;;;;;;;;;;;;;;;;4946509;29;19922;-87
2023/05/02 06:29:53;;;;;;;;;;;;;;;;;;4939445;29;20452;-88
2023/05/02 06:32:20;;;;;;;;;;;;;;;;;;4942975;29;20005;-88
2023/05/02 06:34:46;;;;;;;;;;;;;;;;;;4939127;29;19930;-91
2023/05/02 06:37:12;;;;;;;;;;;;;;;;;;4941681;29;19927;-89
2023/05/02 06:39:38;;;;;;;;;;;;;;;;;;4936444;29;19923;-88
2023/05/02 06:42:04;;;;;;;;;;;;;;;;;;4938512;29;20380;-88
2023/05/02 06:44:29;;;;;;;;;;;;;;;;;;4953406;29;19923;-88
2023/05/02 06:46:56;;;;;;;;;;;;;;;;;;5020591;23;19934;-88
2023/05/02 06:49:22;;;;;;;;;;;;;;;;;;4930183;29;19935;-88
2023/05/02 06:51:48;;;;;;;;;;;;;;;;;;4942119;29;19929;-87
2023/05/02 06:54:14;;;;;;;;;;;;;;;;;;4932342;29;20006;-88
2023/05/02 06:56:40;;;;;;;;;;;;;;;;;;4948811;29;19923;-87
2023/05/02 06:59:06;;;;;;;;;;;;;;;;;;4928007;29;19923;-87
2023/05/02 07:01:32;;;;;;;;;;;;;;;;;;4933194;29;19929;-87
2023/05/02 07:03:58;;;;;;;;;;;;;;;;;;4952727;29;19923;-87
2023/05/02 07:06:24;;;;;;;;;;;;;;;;;;4946485;29;19926;-88
2023/05/02 07:08:50;;;;;;;;;;;;;;;;;;4921965;29;19923;-90
2023/05/02 07:11:15;;;;;;;;;;;;;;;;;;4929548;29;19923;-89
2023/05/02 07:13:41;;;;;;;;;;;;;;;;;;4936914;29;19990;-89
2023/05/02 07:16:07;;;;;;;;;;;;;;;;;;4937155;29;19929;-87
2023/05/02 07:18:33;;;;;;;;;;;;;;;;;;4956067;29;19927;-88
2023/05/02 07:21:00;;;;;;;;;;;;;;;;;;4956454;29;19922;-90
2023/05/02 07:23:26;;;;;;;;;;;;;;;;;;4971017;29;19922;-87
2023/05/02 07:25:52;;;;;;;;;;;;;;;;;;4952830;29;19930;-88
2023/05/02 07:28:18;;;;;;;;;;;;;;;;;;4935919;29;19958;-87
2023/05/02 07:30:45;;;;;;;;;;;;;;;;;;4935591;29;19949;-88
2023/05/02 07:33:11;;;;;;;;;;;;;;;;;;4923865;29;19923;-88
2023/05/02 07:35:37;;;;;;;;;;;;;;;;;;4925545;29;20018;-88
2023/05/02 08:09:12;;;;;;;;;;;;;;;;;;4995400;28;19926;-87
2023/05/02 08:19:26;;;;;;;;;;;;;;;;;;5731177;23;19929;-89
2023/05/02 08:27:03;;;;;;;;;;;;;;;;;;5147271;23;19932;-88
2023/05/02 08:45:05;;;;;;;;;;;;;;;;;;5324883;23;19937;-93
2023/05/02 08:47:31;;;;;;;;;;;;;;;;;;4959858;29;19937;-91
2023/05/02 08:49:57;;;;;;;;;;;;;;;;;;4950988;29;19926;-94
2023/05/02 08:55:00;;;;;;;;;;;;;;;;;;5048021;23;20021;-92
2023/05/02 09:00:04;;;;;;;;;;;;;;;;;;5190314;23;19989;-92
2023/05/02 09:02:31;;;;;;;;;;;;;;;;;;4972395;28;19945;-89
2023/05/02 09:05:06;;;;;;;;;;;;;;;;;;4979323;28;20007;-92
2023/05/02 09:07:32;;;;;;;;;;;;;;;;;;4962339;28;19927;-91
2023/05/02 09:20:27;;;;;;;;;;;;;;;;;;5378709;23;19926;-92
2023/05/02 09:22:53;;;;;;;;;;;;;;;;;;4964748;28;19977;-90
2023/05/02 09:25:20;;;;;;;;;;;;;;;;;;4972906;28;19986;-90
2023/05/02 09:27:46;;;;;;;;;;;;;;;;;;4958815;28;19948;-92
2023/05/02 09:30:11;;;;;;;;;;;;;;;;;;4972374;28;20041;-91
2023/05/02 09:32:37;;;;;;;;;;;;;;;;;;4972072;28;19957;-89
2023/05/02 09:35:03;;;;;;;;;;;;;;;;;;4976024;28;19946;-94
2023/05/02 09:37:29;;;;;;;;;;;;;;;;;;4980330;28;19922;-91
2023/05/02 09:39:55;;;;;;;;;;;;;;;;;;5430827;23;19926;-90
2023/05/02 09:44:57;;;;;;;;;;;;;;;;;;6016951;23;19920;-91
2023/05/02 09:47:23;;;;;;;;;;;;;;;;;;4969264;28;19934;-91
2023/05/02 09:49:49;;;;;;;;;;;;;;;;;;4939446;29;19930;-91
2023/05/02 09:52:15;;;;;;;;;;;;;;;;;;4969620;28;19922;-91
2023/05/02 09:54:41;;;;;;;;;;;;;;;;;;4960956;28;19998;-96
2023/05/02 09:57:09;;;;;;;;;;;;;;;;;;4956225;29;19911;-94
2023/05/02 09:59:35;;;;;;;;;;;;;;;;;;4970325;28;19929;-92
2023/05/02 10:02:01;;;;;;;;;;;;;;;;;;4970172;28;19922;-91
2023/05/02 10:04:27;;;;;;;;;;;;;;;;;;4954224;29;19921;-92
2023/05/02 10:06:53;;;;;;;;;;;;;;;;;;4956498;29;19922;-92
2023/05/02 10:09:19;;;;;;;;;;;;;;;;;;4942625;29;19954;-91
2023/05/02 10:11:45;;;;;;;;;;;;;;;;;;4969188;28;19923;-89
2023/05/02 10:14:11;;;;;;;;;;;;;;;;;;4950665;29;19934;-92
2023/05/02 10:16:37;;;;;;;;;;;;;;;;;;4948723;29;19946;-92
2023/05/02 10:19:03;;;;;;;;;;;;;;;;;;4953597;29;19922;-92
2023/05/02 10:21:28;;;;;;;;;;;;;;;;;;4953910;29;20073;-92
2023/05/02 10:23:54;;;;;;;;;;;;;;;;;;4943114;29;20380;-93
2023/05/02 10:26:21;;;;;;;;;;;;;;;;;;4951749;29;19922;-95
2023/05/02 10:28:48;;;;;;;;;;;;;;;;;;4947084;29;19926;-93
2023/05/02 10:36:26;;;;;;;;;;;;;;;;;;5448664;23;19934;-92
2023/05/02 10:38:52;;;;;;;;;;;;;;;;;;5393230;23;19938;-94
2023/05/02 10:46:30;;;;;;;;;;;;;;;;;;5828693;23;19985;-88
2023/05/02 10:48:56;;;;;;;;;;;;;;;;;;4967248;28;19926;-88
2023/05/02 10:51:22;;;;;;;;;;;;;;;;;;4958346;28;19933;-88
2023/05/02 10:53:49;;;;;;;;;;;;;;;;;;4970021;28;19933;-88
2023/05/02 10:56:15;;;;;;;;;;;;;;;;;;4976373;28;20287;-88
2023/05/02 10:58:41;;;;;;;;;;;;;;;;;;4962227;28;19953;-88
2023/05/02 11:01:26;;;;;;;;;;;;;;;;;;4989259;28;20347;-88
2023/05/02 11:03:51;;;;;;;;;;;;;;;;;;4975100;28;19956;-89
2023/05/02 11:06:17;;;;;;;;;;;;;;;;;;4966916;28;19930;-87
2023/05/02 11:08:43;;;;;;;;;;;;;;;;;;4970529;28;19922;-87
2023/05/02 11:11:11;;;;;;;;;;;;;;;;;;4964122;28;19957;-87
2023/05/02 11:13:37;;;;;;;;;;;;;;;;;;4979602;28;19933;-88
2023/05/02 11:16:03;;;;;;;;;;;;;;;;;;4969490;28;19922;-88
2023/05/02 11:18:37;;;;;;;;;;;;;;;;;;4966053;28;19933;-88
2023/05/02 11:21:13;;;;;;;;;;;;;;;;;;4980321;28;19934;-85
2023/05/02 11:23:57;;;;;;;;;;;;;;;;;;4980858;28;19934;-88
2023/05/02 11:26:24;;;;;;;;;;;;;;;;;;4968871;28;19922;-87
2023/05/02 11:28:51;;;;;;;;;;;;;;;;;;4985624;28;19926;-88
2023/05/02 11:31:17;;;;;;;;;;;;;;;;;;4965449;28;19934;-87
2023/05/02 11:33:43;;;;;;;;;;;;;;;;;;4965513;28;19923;-90
2023/05/02 11:36:08;;;;;;;;;;;;;;;;;;4973206;28;19933;-89
2023/05/02 11:38:34;;;;;;;;;;;;;;;;;;4970313;28;19922;-90
2023/05/02 11:41:03;;;;;;;;;;;;;;;;;;4990147;28;19929;-90
2023/05/02 11:59:02;;;;;;;;;;;;;;;;;;4980669;28;19935;-88
2023/05/02 12:01:29;;;;;;;;;;;;;;;;;;4952716;28;19945;-90
2023/05/02 12:03:56;;;;;;;;;;;;;;;;;;4958012;28;19926;-89
2023/05/02 12:06:22;;;;;;;;;;;;;;;;;;4958687;29;19948;-89
2023/05/02 12:08:48;;;;;;;;;;;;;;;;;;4971057;29;20037;-90
2023/05/02 12:11:17;;;;;;;;;;;;;;;;;;4953200;29;20014;-91
2023/05/02 12:13:42;;;;;;;;;;;;;;;;;;4951146;29;19922;-90
2023/05/02 12:16:10;;;;;;;;;;;;;;;;;;4953347;29;19930;-89
2023/05/02 12:18:36;;;;;;;;;;;;;;;;;;4940034;29;19923;-89
2023/05/02 12:21:02;;;;;;;;;;;;;;;;;;4948635;28;19930;-87
2023/05/02 12:23:28;;;;;;;;;;;;;;;;;;4968528;28;19922;-89
2023/05/02 12:25:54;;;;;;;;;;;;;;;;;;4953402;28;19982;-87
2023/05/02 12:28:22;;;;;;;;;;;;;;;;;;4952323;29;19995;-89
2023/05/02 12:30:48;;;;;;;;;;;;;;;;;;4944708;28;19926;-87
2023/05/02 12:33:15;;;;;;;;;;;;;;;;;;4965202;28;19926;-89
2023/05/02 12:35:44;;;;;;;;;;;;;;;;;;4951570;28;19958;-89
2023/05/02 12:38:10;;;;;;;;;;;;;;;;;;4953247;29;19930;-89
2023/05/02 12:58:45;;;;;;;;;;;;;;;;;;4966253;28;19927;-87
2023/05/02 13:01:12;;;;;;;;;;;;;;;;;;4961852;29;19911;-87
2023/05/02 13:04:17;;;;;;;;;;;;;;;;;;4976889;28;19926;-87
2023/05/02 13:06:42;;;;;;;;;;;;;;;;;;4950156;29;19923;-87
2023/05/02 13:09:08;;;;;;;;;;;;;;;;;;4946247;29;19926;-88
2023/05/02 13:11:41;;;;;;;;;;;;;;;;;;4965912;29;19926;-86
2023/05/02 13:14:11;;;;;;;;;;;;;;;;;;4955566;29;19945;-86
2023/05/02 13:16:37;;;;;;;;;;;;;;;;;;4953272;29;19906;-86
2023/05/02 13:19:30;;;;;;;;;;;;;;;;;;4973718;28;19978;-88
2023/05/02 13:22:05;;;;;;;;;;;;;;;;;;4962879;29;19926;-88
2023/05/02 13:24:31;;;;;;;;;;;;;;;;;;4939463;29;19933;-89
2023/05/02 13:26:57;;;;;;;;;;;;;;;;;;4940205;29;19993;-88
2023/05/02 13:29:23;;;;;;;;;;;;;;;;;;4939827;29;19929;-88
2023/05/02 13:31:49;;;;;;;;;;;;;;;;;;4939146;29;19993;-85
2023/05/02 13:34:15;;;;;;;;;;;;;;;;;;4935597;29;19929;-87
2023/05/02 13:36:44;;;;;;;;;;;;;;;;;;4952461;29;20066;-87
2023/05/02 13:39:11;;;;;;;;;;;;;;;;;;4941576;29;19922;-86
2023/05/02 13:41:37;;;;;;;;;;;;;;;;;;4948154;29;19922;-87
2023/05/02 13:44:03;;;;;;;;;;;;;;;;;;4954362;29;19928;-87
2023/05/02 13:46:34;;;;;;;;;;;;;;;;;;4946722;29;19929;-87
2023/05/02 13:49:01;;;;;;;;;;;;;;;;;;4961005;28;19965;-89
2023/05/02 13:59:19;;;;;;;;;;;;;;;;;;5536080;23;19910;-85
2023/05/02 14:04:33;;;;;;;;;;;;;;;;;;4979961;28;19926;-88
2023/05/02 14:10:08;;;;;;;;;;;;;;;;;;5001255;28;19968;-87
2023/05/02 14:12:38;;;;;;;;;;;;;;;;;;5002065;28;19910;-87
2023/05/02 14:15:27;;;;;;;;;;;;;;;;;;5001250;28;19926;-88
2023/05/02 14:17:54;;;;;;;;;;;;;;;;;;4984877;28;19910;-87
2023/05/02 14:26:03;;;;;;;;;;;;;;;;;;4992982;28;19962;-90
2023/05/02 14:49:17;;;;;;;;;;;;;;;;;;5396580;23;19946;-88
2023/05/02 14:51:52;;;;;;;;;;;;;;;;;;4999630;28;19926;-88
2023/05/02 14:54:19;;;;;;;;;;;;;;;;;;4967942;28;19977;-88
2023/05/02 17:18:34;;;;;;;;;;;;;;;;;;4981566;28;19954;-89
2023/05/02 17:21:10;;;;;;;;;;;;;;;;;;4967512;28;19911;-88
2023/05/02 17:23:38;;;;;;;;;;;;;;;;;;4964716;29;19911;-87
2023/05/02 17:26:13;;;;;;;;;;;;;;;;;;4982500;28;19922;-88
2023/05/02 17:28:39;;;;;;;;;;;;;;;;;;4966112;29;19927;-88
2023/05/02 17:31:08;;;;;;;;;;;;;;;;;;4968593;28;19918;-88
2023/05/02 17:33:35;;;;;;;;;;;;;;;;;;4979699;28;19953;-89
2023/05/02 17:36:34;;;;;;;;;;;;;;;;;;4983067;28;19910;-93
2023/05/02 22:22:11;;;;;;;;;;;;;;;;;;6012534;23;20135;-92
2023/05/02 22:24:42;;;;;;;;;;;;;;;;;;4982147;28;19918;-95
2023/05/02 22:50:36;;;;;;;;;;;;;;;;;;5811743;23;20010;-91
